This is the latest recevied weather packets stored in our database for station/object WA6ODQ-13. If no packets are shown the sender has not sent any weather packets the latest 10 day(s).
| Time | Temp. | Humidity | Pressure | Rain* | Wind** | Luminosity | Snow |
|---|---|---|---|---|---|---|---|
| 1778181441 | 23.89° C | 64% | 1016.6 hPa | 0 mm | - | 727 W/m² | - |
| 1778181138 | 23.89° C | 63% | 1016.8 hPa | 0 mm | - | 722 W/m² | - |
| 1778180835 | 23.33° C | 64% | 1016.9 hPa | 0 mm | - | 719 W/m² | - |
| 1778180534 | 23.33° C | 63% | 1016.7 hPa | 0 mm | - | 714 W/m² | - |
| 1778180231 | 23.33° C | 65% | 1016.6 hPa | 0 mm | - | 709 W/m² | - |
| 1778179928 | 22.78° C | 66% | 1016.9 hPa | 0 mm | - | 704 W/m² | - |
| 1778179626 | 22.78° C | 64% | 1016.9 hPa | 0 mm | - | 698 W/m² | - |
| 1778179324 | 22.22° C | 68% | 1016.9 hPa | 0 mm | - | 693 W/m² | - |
| 1778179020 | 22.78° C | 64% | 1016.9 hPa | 0 mm | - | 684 W/m² | - |
| 1778178716 | 22.22° C | 66% | 1016.9 hPa | 0 mm | - | 679 W/m² | - |
| 1778178414 | 22.22° C | 67% | 1016.9 hPa | 0 mm | - | 672 W/m² | - |
| 1778178104 | 21.67° C | 67% | 1017 hPa | 0 mm | - | 663 W/m² | - |
| 1778177801 | 21.67° C | 67% | 1017.2 hPa | 0 mm | - | 655 W/m² | - |
| 1778177496 | 21.11° C | 69% | 1017 hPa | 0 mm | - | 646 W/m² | - |
| 1778177188 | 21.11° C | 70% | 1017.1 hPa | 0 mm | - | 638 W/m² | - |
| 1778176885 | 21.11° C | 69% | 1017.1 hPa | 0 mm | - | 627 W/m² | - |
| 1778176581 | 20.56° C | 71% | 1017.4 hPa | 0 mm | - | 619 W/m² | - |
| 1778176278 | 21.11° C | 70% | 1016.8 hPa | 0 mm | - | 609 W/m² | - |
| 1778175975 | 20° C | 72% | 1017.3 hPa | 0 mm | - | 598 W/m² | - |
| 1778175673 | 20° C | 71% | 1017.1 hPa | 0 mm | - | 588 W/m² | - |
| 1778175370 | 20° C | 73% | 1017.1 hPa | 0 mm | - | 576 W/m² | - |
| 1778175067 | 19.44° C | 74% | 1017.2 hPa | 0 mm | - | 564 W/m² | - |
| 1778174763 | 19.44° C | 74% | 1017.1 hPa | 0 mm | - | 553 W/m² | - |
| 1778174460 | 18.89° C | 76% | 1017.2 hPa | 0 mm | - | 541 W/m² | - |
| 1778174155 | 18.89° C | 75% | 1017.1 hPa | 0 mm | - | 529 W/m² | - |
* Rain latest hour (hover to see other rain measurements)
** Current wind speed in m/s (hover to see current wind gust speed)